sensor_id;sensor_type;location;lat;lon;timestamp;P1;durP1;ratioP1;P2;durP2;ratioP2
84672;SDS011;74899;42.256;23.284;2024-02-16T00:01:17;3.20;;;2.97;;
84672;SDS011;74899;42.256;23.284;2024-02-16T00:03:43;6.50;;;2.70;;
84672;SDS011;74899;42.256;23.284;2024-02-16T00:06:08;3.95;;;3.63;;
84672;SDS011;74899;42.256;23.284;2024-02-16T00:08:34;4.20;;;3.20;;
84672;SDS011;74899;42.256;23.284;2024-02-16T00:11:03;5.13;;;3.95;;
84672;SDS011;74899;42.256;23.284;2024-02-16T00:13:29;4.13;;;3.15;;
84672;SDS011;74899;42.256;23.284;2024-02-16T00:15:55;3.53;;;3.22;;
84672;SDS011;74899;42.256;23.284;2024-02-16T00:18:20;2.40;;;2.20;;
84672;SDS011;74899;42.256;23.284;2024-02-16T00:20:46;2.63;;;2.30;;
84672;SDS011;74899;42.256;23.284;2024-02-16T00:23:11;7.82;;;3.15;;
84672;SDS011;74899;42.256;23.284;2024-02-16T00:25:37;5.28;;;3.53;;
84672;SDS011;74899;42.256;23.284;2024-02-16T00:28:03;7.75;;;4.68;;
84672;SDS011;74899;42.256;23.284;2024-02-16T00:30:28;9.05;;;4.85;;
84672;SDS011;74899;42.256;23.284;2024-02-16T00:32:54;6.20;;;4.78;;
84672;SDS011;74899;42.256;23.284;2024-02-16T00:35:20;7.47;;;3.85;;
84672;SDS011;74899;42.256;23.284;2024-02-16T00:37:45;11.43;;;5.00;;
84672;SDS011;74899;42.256;23.284;2024-02-16T00:40:11;5.07;;;3.65;;
84672;SDS011;74899;42.256;23.284;2024-02-16T00:42:37;11.38;;;4.13;;
84672;SDS011;74899;42.256;23.284;2024-02-16T00:45:03;5.18;;;4.07;;
84672;SDS011;74899;42.256;23.284;2024-02-16T00:47:29;7.47;;;4.57;;
84672;SDS011;74899;42.256;23.284;2024-02-16T00:49:54;6.63;;;4.93;;
84672;SDS011;74899;42.256;23.284;2024-02-16T00:52:20;6.45;;;4.97;;
84672;SDS011;74899;42.256;23.284;2024-02-16T00:54:47;7.47;;;5.03;;
84672;SDS011;74899;42.256;23.284;2024-02-16T00:57:13;3.30;;;3.00;;
84672;SDS011;74899;42.256;23.284;2024-02-16T00:59:39;6.45;;;3.58;;
84672;SDS011;74899;42.256;23.284;2024-02-16T01:02:05;2.63;;;2.10;;
84672;SDS011;74899;42.256;23.284;2024-02-16T01:04:32;10.02;;;3.92;;
84672;SDS011;74899;42.256;23.284;2024-02-16T01:06:58;10.90;;;5.57;;
84672;SDS011;74899;42.256;23.284;2024-02-16T01:09:23;9.32;;;5.43;;
84672;SDS011;74899;42.256;23.284;2024-02-16T01:11:49;19.02;;;6.22;;
84672;SDS011;74899;42.256;23.284;2024-02-16T01:14:15;10.40;;;5.63;;
84672;SDS011;74899;42.256;23.284;2024-02-16T01:16:40;18.92;;;6.53;;
84672;SDS011;74899;42.256;23.284;2024-02-16T01:19:06;12.82;;;6.43;;
84672;SDS011;74899;42.256;23.284;2024-02-16T01:21:32;10.95;;;4.82;;
84672;SDS011;74899;42.256;23.284;2024-02-16T01:23:58;6.97;;;4.30;;
84672;SDS011;74899;42.256;23.284;2024-02-16T01:26:26;8.68;;;4.20;;
84672;SDS011;74899;42.256;23.284;2024-02-16T01:28:52;7.97;;;4.95;;
84672;SDS011;74899;42.256;23.284;2024-02-16T01:31:17;14.50;;;6.28;;
84672;SDS011;74899;42.256;23.284;2024-02-16T01:33:43;12.45;;;5.68;;
84672;SDS011;74899;42.256;23.284;2024-02-16T01:36:08;6.07;;;3.90;;
84672;SDS011;74899;42.256;23.284;2024-02-16T01:38:34;7.25;;;3.00;;
84672;SDS011;74899;42.256;23.284;2024-02-16T01:40:59;7.72;;;3.67;;
84672;SDS011;74899;42.256;23.284;2024-02-16T01:43:27;25.25;;;8.82;;
84672;SDS011;74899;42.256;23.284;2024-02-16T01:45:52;21.10;;;8.98;;
84672;SDS011;74899;42.256;23.284;2024-02-16T01:48:18;11.90;;;5.70;;
84672;SDS011;74899;42.256;23.284;2024-02-16T01:50:44;18.20;;;6.43;;
84672;SDS011;74899;42.256;23.284;2024-02-16T01:53:13;17.13;;;6.63;;
84672;SDS011;74899;42.256;23.284;2024-02-16T01:55:44;12.63;;;5.18;;
84672;SDS011;74899;42.256;23.284;2024-02-16T01:58:10;9.15;;;4.60;;
84672;SDS011;74899;42.256;23.284;2024-02-16T02:00:36;7.45;;;4.80;;
84672;SDS011;74899;42.256;23.284;2024-02-16T02:03:02;4.07;;;3.63;;
84672;SDS011;74899;42.256;23.284;2024-02-16T02:05:28;4.80;;;2.80;;
84672;SDS011;74899;42.256;23.284;2024-02-16T02:07:54;3.03;;;2.38;;
84672;SDS011;74899;42.256;23.284;2024-02-16T02:10:19;4.55;;;3.95;;
84672;SDS011;74899;42.256;23.284;2024-02-16T02:12:45;4.40;;;3.13;;
84672;SDS011;74899;42.256;23.284;2024-02-16T02:15:11;8.50;;;4.22;;
84672;SDS011;74899;42.256;23.284;2024-02-16T02:17:37;5.35;;;3.85;;
84672;SDS011;74899;42.256;23.284;2024-02-16T02:20:02;7.30;;;3.42;;
84672;SDS011;74899;42.256;23.284;2024-02-16T02:22:29;8.05;;;3.92;;
84672;SDS011;74899;42.256;23.284;2024-02-16T02:24:54;8.23;;;3.65;;
84672;SDS011;74899;42.256;23.284;2024-02-16T02:27:20;10.75;;;4.68;;
84672;SDS011;74899;42.256;23.284;2024-02-16T02:29:46;7.40;;;4.10;;
84672;SDS011;74899;42.256;23.284;2024-02-16T02:32:12;11.43;;;4.63;;
84672;SDS011;74899;42.256;23.284;2024-02-16T02:34:38;10.02;;;3.40;;
84672;SDS011;74899;42.256;23.284;2024-02-16T02:37:04;10.25;;;4.88;;
84672;SDS011;74899;42.256;23.284;2024-02-16T02:39:31;6.28;;;3.22;;
84672;SDS011;74899;42.256;23.284;2024-02-16T02:41:57;4.50;;;3.33;;
84672;SDS011;74899;42.256;23.284;2024-02-16T02:44:25;4.88;;;3.25;;
84672;SDS011;74899;42.256;23.284;2024-02-16T02:46:51;9.82;;;3.95;;
84672;SDS011;74899;42.256;23.284;2024-02-16T02:49:17;3.85;;;2.63;;
84672;SDS011;74899;42.256;23.284;2024-02-16T02:51:43;7.72;;;3.33;;
84672;SDS011;74899;42.256;23.284;2024-02-16T02:54:09;9.38;;;4.82;;
84672;SDS011;74899;42.256;23.284;2024-02-16T02:56:34;10.18;;;4.97;;
84672;SDS011;74899;42.256;23.284;2024-02-16T02:59:00;8.18;;;4.68;;
84672;SDS011;74899;42.256;23.284;2024-02-16T03:01:26;4.80;;;3.63;;
84672;SDS011;74899;42.256;23.284;2024-02-16T03:03:51;4.13;;;3.60;;
84672;SDS011;74899;42.256;23.284;2024-02-16T03:06:20;6.63;;;4.50;;
84672;SDS011;74899;42.256;23.284;2024-02-16T03:08:46;5.43;;;3.67;;
84672;SDS011;74899;42.256;23.284;2024-02-16T03:11:12;6.38;;;4.78;;
84672;SDS011;74899;42.256;23.284;2024-02-16T03:13:37;5.47;;;4.15;;
84672;SDS011;74899;42.256;23.284;2024-02-16T03:16:03;5.28;;;4.00;;
84672;SDS011;74899;42.256;23.284;2024-02-16T03:18:29;7.35;;;5.03;;
84672;SDS011;74899;42.256;23.284;2024-02-16T03:20:56;8.65;;;4.30;;
84672;SDS011;74899;42.256;23.284;2024-02-16T03:23:22;8.18;;;4.40;;
84672;SDS011;74899;42.256;23.284;2024-02-16T03:25:47;9.80;;;5.40;;
84672;SDS011;74899;42.256;23.284;2024-02-16T03:28:13;7.55;;;5.43;;
84672;SDS011;74899;42.256;23.284;2024-02-16T03:30:39;14.98;;;7.93;;
84672;SDS011;74899;42.256;23.284;2024-02-16T03:33:08;10.70;;;7.97;;
84672;SDS011;74899;42.256;23.284;2024-02-16T03:35:34;9.07;;;4.78;;
84672;SDS011;74899;42.256;23.284;2024-02-16T03:38:01;9.05;;;6.03;;
84672;SDS011;74899;42.256;23.284;2024-02-16T03:40:29;10.60;;;7.32;;
84672;SDS011;74899;42.256;23.284;2024-02-16T03:42:55;9.95;;;5.85;;
84672;SDS011;74899;42.256;23.284;2024-02-16T03:45:21;7.95;;;4.75;;
84672;SDS011;74899;42.256;23.284;2024-02-16T03:47:48;9.57;;;3.72;;
84672;SDS011;74899;42.256;23.284;2024-02-16T03:50:14;7.25;;;4.18;;
84672;SDS011;74899;42.256;23.284;2024-02-16T03:52:42;4.88;;;3.90;;
84672;SDS011;74899;42.256;23.284;2024-02-16T03:55:07;9.85;;;5.43;;
84672;SDS011;74899;42.256;23.284;2024-02-16T03:57:33;15.88;;;7.60;;
84672;SDS011;74899;42.256;23.284;2024-02-16T03:59:59;16.63;;;8.32;;
84672;SDS011;74899;42.256;23.284;2024-02-16T04:02:24;10.65;;;5.50;;
84672;SDS011;74899;42.256;23.284;2024-02-16T04:04:51;8.70;;;5.03;;
84672;SDS011;74899;42.256;23.284;2024-02-16T04:07:17;15.10;;;6.47;;
84672;SDS011;74899;42.256;23.284;2024-02-16T04:09:42;25.40;;;11.27;;
84672;SDS011;74899;42.256;23.284;2024-02-16T04:12:08;17.33;;;8.45;;
84672;SDS011;74899;42.256;23.284;2024-02-16T04:14:35;27.90;;;14.00;;
84672;SDS011;74899;42.256;23.284;2024-02-16T04:17:01;11.90;;;7.05;;
84672;SDS011;74899;42.256;23.284;2024-02-16T04:19:27;24.02;;;8.88;;
84672;SDS011;74899;42.256;23.284;2024-02-16T04:21:54;12.25;;;7.07;;
84672;SDS011;74899;42.256;23.284;2024-02-16T04:24:20;42.78;;;19.55;;
84672;SDS011;74899;42.256;23.284;2024-02-16T04:26:47;33.00;;;11.73;;
84672;SDS011;74899;42.256;23.284;2024-02-16T04:29:13;22.23;;;9.00;;
84672;SDS011;74899;42.256;23.284;2024-02-16T04:31:40;17.05;;;6.43;;
84672;SDS011;74899;42.256;23.284;2024-02-16T04:34:13;17.88;;;6.95;;
84672;SDS011;74899;42.256;23.284;2024-02-16T04:36:39;19.83;;;6.53;;
84672;SDS011;74899;42.256;23.284;2024-02-16T04:39:05;11.35;;;5.30;;
84672;SDS011;74899;42.256;23.284;2024-02-16T04:41:31;10.90;;;6.55;;
84672;SDS011;74899;42.256;23.284;2024-02-16T04:43:57;23.13;;;10.38;;
84672;SDS011;74899;42.256;23.284;2024-02-16T04:46:25;36.92;;;13.68;;
84672;SDS011;74899;42.256;23.284;2024-02-16T04:48:52;40.90;;;15.60;;
84672;SDS011;74899;42.256;23.284;2024-02-16T04:51:18;36.55;;;14.15;;
84672;SDS011;74899;42.256;23.284;2024-02-16T04:53:43;28.67;;;13.77;;
84672;SDS011;74899;42.256;23.284;2024-02-16T04:56:09;24.20;;;11.35;;
84672;SDS011;74899;42.256;23.284;2024-02-16T04:58:34;22.23;;;11.07;;
84672;SDS011;74899;42.256;23.284;2024-02-16T05:01:00;22.50;;;15.32;;
84672;SDS011;74899;42.256;23.284;2024-02-16T05:03:25;34.03;;;17.58;;
84672;SDS011;74899;42.256;23.284;2024-02-16T05:05:51;25.60;;;15.80;;
84672;SDS011;74899;42.256;23.284;2024-02-16T05:08:21;22.92;;;15.13;;
84672;SDS011;74899;42.256;23.284;2024-02-16T05:10:48;30.65;;;15.80;;
84672;SDS011;74899;42.256;23.284;2024-02-16T05:13:14;24.40;;;12.70;;
84672;SDS011;74899;42.256;23.284;2024-02-16T05:15:40;14.95;;;10.15;;
84672;SDS011;74899;42.256;23.284;2024-02-16T05:18:07;19.30;;;8.68;;
84672;SDS011;74899;42.256;23.284;2024-02-16T05:20:33;14.07;;;7.93;;
84672;SDS011;74899;42.256;23.284;2024-02-16T05:23:00;17.38;;;9.57;;
84672;SDS011;74899;42.256;23.284;2024-02-16T05:25:26;14.48;;;9.32;;
84672;SDS011;74899;42.256;23.284;2024-02-16T05:27:51;21.30;;;10.25;;
84672;SDS011;74899;42.256;23.284;2024-02-16T05:30:17;16.25;;;9.60;;
84672;SDS011;74899;42.256;23.284;2024-02-16T05:32:42;20.92;;;12.30;;
84672;SDS011;74899;42.256;23.284;2024-02-16T05:35:09;40.35;;;16.33;;
84672;SDS011;74899;42.256;23.284;2024-02-16T05:37:46;22.67;;;12.68;;
84672;SDS011;74899;42.256;23.284;2024-02-16T05:40:14;27.67;;;14.93;;
84672;SDS011;74899;42.256;23.284;2024-02-16T05:42:52;33.13;;;17.85;;
84672;SDS011;74899;42.256;23.284;2024-02-16T05:45:18;42.10;;;19.13;;
84672;SDS011;74899;42.256;23.284;2024-02-16T05:47:45;156.02;;;56.85;;
84672;SDS011;74899;42.256;23.284;2024-02-16T05:50:11;91.90;;;36.33;;
84672;SDS011;74899;42.256;23.284;2024-02-16T05:52:38;35.90;;;16.60;;
84672;SDS011;74899;42.256;23.284;2024-02-16T05:55:04;257.08;;;86.38;;
84672;SDS011;74899;42.256;23.284;2024-02-16T05:57:34;100.70;;;36.47;;
84672;SDS011;74899;42.256;23.284;2024-02-16T06:00:00;168.70;;;51.42;;
84672;SDS011;74899;42.256;23.284;2024-02-16T06:02:29;122.85;;;41.22;;
84672;SDS011;74899;42.256;23.284;2024-02-16T06:04:55;173.45;;;52.10;;
84672;SDS011;74899;42.256;23.284;2024-02-16T06:07:21;66.70;;;25.30;;
84672;SDS011;74899;42.256;23.284;2024-02-16T06:09:47;50.13;;;18.05;;
84672;SDS011;74899;42.256;23.284;2024-02-16T06:12:12;5.78;;;5.38;;
84672;SDS011;74899;42.256;23.284;2024-02-16T06:14:38;25.70;;;9.40;;
84672;SDS011;74899;42.256;23.284;2024-02-16T06:17:04;11.45;;;6.65;;
84672;SDS011;74899;42.256;23.284;2024-02-16T06:19:29;35.40;;;14.93;;
84672;SDS011;74899;42.256;23.284;2024-02-16T06:21:55;18.60;;;10.57;;
84672;SDS011;74899;42.256;23.284;2024-02-16T06:24:21;59.67;;;23.15;;
84672;SDS011;74899;42.256;23.284;2024-02-16T06:26:48;61.95;;;24.38;;
84672;SDS011;74899;42.256;23.284;2024-02-16T06:29:14;47.22;;;22.23;;
84672;SDS011;74899;42.256;23.284;2024-02-16T06:31:39;72.15;;;24.85;;
84672;SDS011;74899;42.256;23.284;2024-02-16T06:34:05;43.20;;;20.40;;
84672;SDS011;74899;42.256;23.284;2024-02-16T06:36:30;132.60;;;40.65;;
84672;SDS011;74899;42.256;23.284;2024-02-16T06:38:56;103.88;;;37.53;;
84672;SDS011;74899;42.256;23.284;2024-02-16T06:41:21;40.05;;;19.00;;
84672;SDS011;74899;42.256;23.284;2024-02-16T06:43:47;46.30;;;22.73;;
84672;SDS011;74899;42.256;23.284;2024-02-16T06:46:12;156.05;;;47.90;;
84672;SDS011;74899;42.256;23.284;2024-02-16T06:48:38;25.73;;;12.32;;
84672;SDS011;74899;42.256;23.284;2024-02-16T06:51:03;25.63;;;14.98;;
84672;SDS011;74899;42.256;23.284;2024-02-16T06:53:29;11.07;;;8.90;;
84672;SDS011;74899;42.256;23.284;2024-02-16T06:55:54;19.80;;;11.10;;
84672;SDS011;74899;42.256;23.284;2024-02-16T06:58:20;35.10;;;13.55;;
84672;SDS011;74899;42.256;23.284;2024-02-16T07:00:45;27.27;;;14.07;;
84672;SDS011;74899;42.256;23.284;2024-02-16T07:03:11;42.10;;;17.80;;
84672;SDS011;74899;42.256;23.284;2024-02-16T07:05:37;32.38;;;14.18;;
84672;SDS011;74899;42.256;23.284;2024-02-16T07:08:05;56.92;;;22.25;;
84672;SDS011;74899;42.256;23.284;2024-02-16T07:10:32;32.28;;;18.10;;
84672;SDS011;74899;42.256;23.284;2024-02-16T07:12:58;52.20;;;25.27;;
84672;SDS011;74899;42.256;23.284;2024-02-16T07:15:24;60.25;;;27.92;;
84672;SDS011;74899;42.256;23.284;2024-02-16T07:17:51;66.32;;;28.55;;
84672;SDS011;74899;42.256;23.284;2024-02-16T07:20:16;51.70;;;26.00;;
84672;SDS011;74899;42.256;23.284;2024-02-16T07:22:43;44.58;;;21.80;;
84672;SDS011;74899;42.256;23.284;2024-02-16T07:25:11;49.08;;;21.90;;
84672;SDS011;74899;42.256;23.284;2024-02-16T07:27:37;29.02;;;15.43;;
84672;SDS011;74899;42.256;23.284;2024-02-16T07:30:03;28.20;;;15.27;;
84672;SDS011;74899;42.256;23.284;2024-02-16T07:32:29;31.58;;;15.40;;
84672;SDS011;74899;42.256;23.284;2024-02-16T07:34:55;56.15;;;24.48;;
84672;SDS011;74899;42.256;23.284;2024-02-16T07:37:20;75.63;;;27.75;;
84672;SDS011;74899;42.256;23.284;2024-02-16T07:39:46;63.75;;;24.17;;
84672;SDS011;74899;42.256;23.284;2024-02-16T07:42:11;61.40;;;25.08;;
84672;SDS011;74899;42.256;23.284;2024-02-16T07:44:38;17.00;;;9.95;;
84672;SDS011;74899;42.256;23.284;2024-02-16T07:47:04;37.05;;;13.98;;
84672;SDS011;74899;42.256;23.284;2024-02-16T07:49:30;27.40;;;13.77;;
84672;SDS011;74899;42.256;23.284;2024-02-16T07:51:56;23.08;;;13.10;;
84672;SDS011;74899;42.256;23.284;2024-02-16T07:54:22;24.27;;;11.25;;
84672;SDS011;74899;42.256;23.284;2024-02-16T07:56:48;21.42;;;10.20;;
84672;SDS011;74899;42.256;23.284;2024-02-16T07:59:13;33.85;;;13.20;;
84672;SDS011;74899;42.256;23.284;2024-02-16T08:01:39;28.90;;;13.02;;
84672;SDS011;74899;42.256;23.284;2024-02-16T08:04:05;23.88;;;12.27;;
84672;SDS011;74899;42.256;23.284;2024-02-16T08:06:31;25.50;;;11.98;;
84672;SDS011;74899;42.256;23.284;2024-02-16T08:08:56;23.83;;;11.02;;
84672;SDS011;74899;42.256;23.284;2024-02-16T08:11:22;17.33;;;10.40;;
84672;SDS011;74899;42.256;23.284;2024-02-16T08:13:47;23.05;;;10.70;;
84672;SDS011;74899;42.256;23.284;2024-02-16T08:16:13;9.55;;;6.20;;
84672;SDS011;74899;42.256;23.284;2024-02-16T08:18:39;14.68;;;9.20;;
84672;SDS011;74899;42.256;23.284;2024-02-16T08:21:04;61.95;;;16.02;;
84672;SDS011;74899;42.256;23.284;2024-02-16T08:23:30;97.28;;;23.85;;
84672;SDS011;74899;42.256;23.284;2024-02-16T08:25:56;29.13;;;10.77;;
84672;SDS011;74899;42.256;23.284;2024-02-16T08:28:22;18.42;;;7.65;;
84672;SDS011;74899;42.256;23.284;2024-02-16T08:30:48;12.27;;;6.07;;
84672;SDS011;74899;42.256;23.284;2024-02-16T08:33:13;5.03;;;4.40;;
84672;SDS011;74899;42.256;23.284;2024-02-16T08:35:39;10.70;;;4.72;;
84672;SDS011;74899;42.256;23.284;2024-02-16T08:38:04;10.40;;;5.43;;
84672;SDS011;74899;42.256;23.284;2024-02-16T08:40:30;7.68;;;5.00;;
84672;SDS011;74899;42.256;23.284;2024-02-16T08:42:55;7.47;;;4.25;;
84672;SDS011;74899;42.256;23.284;2024-02-16T08:45:21;32.58;;;13.13;;
84672;SDS011;74899;42.256;23.284;2024-02-16T08:47:46;12.55;;;6.85;;
84672;SDS011;74899;42.256;23.284;2024-02-16T08:50:12;5.72;;;3.78;;
84672;SDS011;74899;42.256;23.284;2024-02-16T08:52:38;13.73;;;8.30;;
84672;SDS011;74899;42.256;23.284;2024-02-16T08:55:04;5.20;;;4.80;;
84672;SDS011;74899;42.256;23.284;2024-02-16T08:57:31;37.33;;;15.05;;
84672;SDS011;74899;42.256;23.284;2024-02-16T08:59:57;10.27;;;7.85;;
84672;SDS011;74899;42.256;23.284;2024-02-16T09:02:22;43.13;;;17.23;;
84672;SDS011;74899;42.256;23.284;2024-02-16T09:04:47;3.40;;;3.10;;
84672;SDS011;74899;42.256;23.284;2024-02-16T09:07:13;4.85;;;2.67;;
84672;SDS011;74899;42.256;23.284;2024-02-16T09:09:39;5.70;;;3.30;;
84672;SDS011;74899;42.256;23.284;2024-02-16T09:12:04;15.23;;;6.10;;
84672;SDS011;74899;42.256;23.284;2024-02-16T09:14:30;3.22;;;2.92;;
84672;SDS011;74899;42.256;23.284;2024-02-16T09:16:57;31.65;;;10.65;;
84672;SDS011;74899;42.256;23.284;2024-02-16T09:19:22;3.47;;;2.75;;
84672;SDS011;74899;42.256;23.284;2024-02-16T09:21:48;2.72;;;2.28;;
84672;SDS011;74899;42.256;23.284;2024-02-16T09:24:16;107.47;;;32.10;;
84672;SDS011;74899;42.256;23.284;2024-02-16T09:26:46;10.60;;;5.22;;
84672;SDS011;74899;42.256;23.284;2024-02-16T09:29:14;3.38;;;3.08;;
84672;SDS011;74899;42.256;23.284;2024-02-16T09:31:40;5.00;;;4.15;;
84672;SDS011;74899;42.256;23.284;2024-02-16T09:34:07;5.72;;;4.00;;
84672;SDS011;74899;42.256;23.284;2024-02-16T09:36:32;6.72;;;4.55;;
84672;SDS011;74899;42.256;23.284;2024-02-16T09:38:58;7.10;;;5.60;;
84672;SDS011;74899;42.256;23.284;2024-02-16T09:41:23;7.22;;;5.53;;
84672;SDS011;74899;42.256;23.284;2024-02-16T09:43:49;3.03;;;2.83;;
84672;SDS011;74899;42.256;23.284;2024-02-16T09:46:18;4.03;;;3.65;;
84672;SDS011;74899;42.256;23.284;2024-02-16T09:48:45;3.97;;;3.67;;
84672;SDS011;74899;42.256;23.284;2024-02-16T09:51:13;4.68;;;3.97;;
84672;SDS011;74899;42.256;23.284;2024-02-16T09:53:39;11.43;;;5.20;;
84672;SDS011;74899;42.256;23.284;2024-02-16T09:56:05;10.75;;;5.97;;
84672;SDS011;74899;42.256;23.284;2024-02-16T09:58:34;2.80;;;2.60;;
84672;SDS011;74899;42.256;23.284;2024-02-16T10:01:00;4.43;;;4.03;;
84672;SDS011;74899;42.256;23.284;2024-02-16T10:06:04;3.70;;;3.40;;
84672;SDS011;74899;42.256;23.284;2024-02-16T10:08:31;4.97;;;4.50;;
84672;SDS011;74899;42.256;23.284;2024-02-16T10:11:04;4.63;;;4.20;;
84672;SDS011;74899;42.256;23.284;2024-02-16T10:13:32;6.60;;;4.68;;
84672;SDS011;74899;42.256;23.284;2024-02-16T10:16:04;9.40;;;5.72;;
84672;SDS011;74899;42.256;23.284;2024-02-16T10:18:36;3.80;;;3.40;;
84672;SDS011;74899;42.256;23.284;2024-02-16T10:21:03;23.90;;;6.63;;
84672;SDS011;74899;42.256;23.284;2024-02-16T10:23:29;13.65;;;6.13;;
84672;SDS011;74899;42.256;23.284;2024-02-16T10:25:56;15.48;;;6.93;;
84672;SDS011;74899;42.256;23.284;2024-02-16T10:28:24;33.40;;;11.80;;
84672;SDS011;74899;42.256;23.284;2024-02-16T10:30:56;7.25;;;4.75;;
84672;SDS011;74899;42.256;23.284;2024-02-16T10:33:30;11.02;;;5.18;;
84672;SDS011;74899;42.256;23.284;2024-02-16T10:35:57;4.80;;;3.25;;
84672;SDS011;74899;42.256;23.284;2024-02-16T10:38:24;4.28;;;3.85;;
84672;SDS011;74899;42.256;23.284;2024-02-16T10:40:51;3.42;;;3.22;;
84672;SDS011;74899;42.256;23.284;2024-02-16T10:43:18;10.98;;;6.05;;
84672;SDS011;74899;42.256;23.284;2024-02-16T10:45:46;7.80;;;5.85;;
84672;SDS011;74899;42.256;23.284;2024-02-16T10:48:14;13.38;;;8.10;;
84672;SDS011;74899;42.256;23.284;2024-02-16T10:50:40;4.57;;;4.18;;
84672;SDS011;74899;42.256;23.284;2024-02-16T10:53:14;6.63;;;4.97;;
84672;SDS011;74899;42.256;23.284;2024-02-16T10:55:44;4.90;;;4.38;;
84672;SDS011;74899;42.256;23.284;2024-02-16T10:58:11;4.80;;;4.15;;
84672;SDS011;74899;42.256;23.284;2024-02-16T11:00:47;4.93;;;4.25;;
84672;SDS011;74899;42.256;23.284;2024-02-16T11:03:22;4.47;;;3.00;;
84672;SDS011;74899;42.256;23.284;2024-02-16T11:05:53;9.40;;;5.35;;
84672;SDS011;74899;42.256;23.284;2024-02-16T11:08:21;5.38;;;4.88;;
84672;SDS011;74899;42.256;23.284;2024-02-16T11:10:58;10.60;;;5.47;;
84672;SDS011;74899;42.256;23.284;2024-02-16T11:13:25;8.88;;;6.28;;
84672;SDS011;74899;42.256;23.284;2024-02-16T11:16:02;3.95;;;3.55;;
84672;SDS011;74899;42.256;23.284;2024-02-16T11:18:37;5.53;;;4.35;;
84672;SDS011;74899;42.256;23.284;2024-02-16T11:21:05;8.90;;;5.63;;
84672;SDS011;74899;42.256;23.284;2024-02-16T11:23:33;5.85;;;3.85;;
84672;SDS011;74899;42.256;23.284;2024-02-16T11:26:00;11.13;;;6.93;;
84672;SDS011;74899;42.256;23.284;2024-02-16T11:28:27;17.60;;;8.27;;
84672;SDS011;74899;42.256;23.284;2024-02-16T11:30:54;8.40;;;5.55;;
84672;SDS011;74899;42.256;23.284;2024-02-16T11:33:19;7.07;;;4.38;;
84672;SDS011;74899;42.256;23.284;2024-02-16T11:35:54;2.90;;;2.67;;
84672;SDS011;74899;42.256;23.284;2024-02-16T11:38:21;8.25;;;4.57;;
84672;SDS011;74899;42.256;23.284;2024-02-16T11:40:56;4.32;;;3.65;;
84672;SDS011;74899;42.256;23.284;2024-02-16T11:43:23;8.82;;;4.40;;
84672;SDS011;74899;42.256;23.284;2024-02-16T11:45:49;7.55;;;4.80;;
84672;SDS011;74899;42.256;23.284;2024-02-16T11:48:21;4.68;;;3.47;;
84672;SDS011;74899;42.256;23.284;2024-02-16T11:50:49;6.55;;;4.78;;
84672;SDS011;74899;42.256;23.284;2024-02-16T11:53:23;10.57;;;6.22;;
84672;SDS011;74899;42.256;23.284;2024-02-16T11:55:49;3.38;;;2.88;;
84672;SDS011;74899;42.256;23.284;2024-02-16T11:58:18;6.10;;;4.13;;
84672;SDS011;74899;42.256;23.284;2024-02-16T12:00:45;3.40;;;2.78;;
84672;SDS011;74899;42.256;23.284;2024-02-16T12:03:20;2.95;;;2.75;;
84672;SDS011;74899;42.256;23.284;2024-02-16T12:06:01;2.90;;;2.70;;
84672;SDS011;74899;42.256;23.284;2024-02-16T12:08:34;3.40;;;3.10;;
84672;SDS011;74899;42.256;23.284;2024-02-16T12:11:00;6.80;;;2.03;;
84672;SDS011;74899;42.256;23.284;2024-02-16T12:13:27;2.25;;;2.05;;
84672;SDS011;74899;42.256;23.284;2024-02-16T12:15:53;3.47;;;3.17;;
84672;SDS011;74899;42.256;23.284;2024-02-16T12:18:25;6.65;;;4.30;;
84672;SDS011;74899;42.256;23.284;2024-02-16T12:21:00;3.17;;;2.97;;
84672;SDS011;74899;42.256;23.284;2024-02-16T12:23:28;2.28;;;2.17;;
84672;SDS011;74899;42.256;23.284;2024-02-16T12:26:00;2.08;;;1.98;;
84672;SDS011;74899;42.256;23.284;2024-02-16T12:28:27;3.90;;;3.40;;
84672;SDS011;74899;42.256;23.284;2024-02-16T12:30:57;3.50;;;3.08;;
84672;SDS011;74899;42.256;23.284;2024-02-16T12:33:24;8.40;;;2.60;;
84672;SDS011;74899;42.256;23.284;2024-02-16T12:35:50;2.20;;;2.03;;
84672;SDS011;74899;42.256;23.284;2024-02-16T12:38:16;6.05;;;3.70;;
84672;SDS011;74899;42.256;23.284;2024-02-16T12:40:44;4.70;;;4.30;;
84672;SDS011;74899;42.256;23.284;2024-02-16T12:43:10;3.22;;;2.97;;
84672;SDS011;74899;42.256;23.284;2024-02-16T12:45:36;3.58;;;3.15;;
84672;SDS011;74899;42.256;23.284;2024-02-16T12:48:02;3.30;;;3.08;;
84672;SDS011;74899;42.256;23.284;2024-02-16T12:50:29;5.40;;;4.70;;
84672;SDS011;74899;42.256;23.284;2024-02-16T12:52:55;3.03;;;2.72;;
84672;SDS011;74899;42.256;23.284;2024-02-16T12:55:25;3.30;;;3.10;;
84672;SDS011;74899;42.256;23.284;2024-02-16T12:57:51;4.15;;;3.85;;
84672;SDS011;74899;42.256;23.284;2024-02-16T13:00:16;2.67;;;2.47;;
84672;SDS011;74899;42.256;23.284;2024-02-16T13:02:43;2.53;;;2.10;;
84672;SDS011;74899;42.256;23.284;2024-02-16T13:05:09;3.45;;;3.15;;
84672;SDS011;74899;42.256;23.284;2024-02-16T13:07:36;4.55;;;4.25;;
84672;SDS011;74899;42.256;23.284;2024-02-16T13:10:04;2.35;;;2.25;;
84672;SDS011;74899;42.256;23.284;2024-02-16T13:12:30;2.75;;;2.55;;
84672;SDS011;74899;42.256;23.284;2024-02-16T13:14:56;3.45;;;2.85;;
84672;SDS011;74899;42.256;23.284;2024-02-16T13:17:22;5.80;;;2.55;;
84672;SDS011;74899;42.256;23.284;2024-02-16T13:19:47;3.85;;;3.33;;
84672;SDS011;74899;42.256;23.284;2024-02-16T13:22:13;3.95;;;3.75;;
84672;SDS011;74899;42.256;23.284;2024-02-16T13:24:39;2.67;;;2.47;;
84672;SDS011;74899;42.256;23.284;2024-02-16T13:27:06;2.63;;;2.42;;
84672;SDS011;74899;42.256;23.284;2024-02-16T13:29:32;5.90;;;3.15;;
84672;SDS011;74899;42.256;23.284;2024-02-16T13:31:57;2.42;;;2.22;;
84672;SDS011;74899;42.256;23.284;2024-02-16T13:34:23;4.10;;;3.80;;
84672;SDS011;74899;42.256;23.284;2024-02-16T13:36:50;3.40;;;3.05;;
84672;SDS011;74899;42.256;23.284;2024-02-16T13:39:16;4.93;;;3.00;;
84672;SDS011;74899;42.256;23.284;2024-02-16T13:41:42;4.47;;;3.92;;
84672;SDS011;74899;42.256;23.284;2024-02-16T13:44:09;4.93;;;3.10;;
84672;SDS011;74899;42.256;23.284;2024-02-16T13:46:35;4.47;;;4.07;;
84672;SDS011;74899;42.256;23.284;2024-02-16T13:49:00;3.47;;;2.45;;
84672;SDS011;74899;42.256;23.284;2024-02-16T13:51:26;3.25;;;2.95;;
84672;SDS011;74899;42.256;23.284;2024-02-16T13:53:51;5.03;;;3.47;;
84672;SDS011;74899;42.256;23.284;2024-02-16T13:56:17;8.13;;;3.15;;
84672;SDS011;74899;42.256;23.284;2024-02-16T13:58:43;2.60;;;2.33;;
84672;SDS011;74899;42.256;23.284;2024-02-16T14:01:08;3.05;;;2.85;;
84672;SDS011;74899;42.256;23.284;2024-02-16T14:03:34;4.30;;;3.53;;
84672;SDS011;74899;42.256;23.284;2024-02-16T14:06:01;11.27;;;5.38;;
84672;SDS011;74899;42.256;23.284;2024-02-16T14:08:28;3.13;;;2.92;;
84672;SDS011;74899;42.256;23.284;2024-02-16T14:10:53;2.90;;;2.70;;
84672;SDS011;74899;42.256;23.284;2024-02-16T14:13:19;30.52;;;4.72;;
84672;SDS011;74899;42.256;23.284;2024-02-16T14:15:45;2.72;;;2.58;;
84672;SDS011;74899;42.256;23.284;2024-02-16T14:18:10;5.78;;;2.83;;
84672;SDS011;74899;42.256;23.284;2024-02-16T14:20:36;5.45;;;3.55;;
84672;SDS011;74899;42.256;23.284;2024-02-16T14:23:01;5.20;;;3.25;;
84672;SDS011;74899;42.256;23.284;2024-02-16T14:25:28;4.28;;;3.95;;